sensor_id;sensor_type;location;lat;lon;timestamp;temperature;humidity
19007;DHT22;9636;47.382;8.480;2024-02-26T00:01:48;10.00;97.20
19007;DHT22;9636;47.382;8.480;2024-02-26T00:04:17;10.20;97.00
19007;DHT22;9636;47.382;8.480;2024-02-26T00:06:43;10.40;96.70
19007;DHT22;9636;47.382;8.480;2024-02-26T00:09:10;10.30;96.40
19007;DHT22;9636;47.382;8.480;2024-02-26T00:11:37;10.60;96.10
19007;DHT22;9636;47.382;8.480;2024-02-26T00:14:05;10.60;96.10
19007;DHT22;9636;47.382;8.480;2024-02-26T00:16:32;10.50;95.90
19007;DHT22;9636;47.382;8.480;2024-02-26T00:18:58;10.40;96.30
19007;DHT22;9636;47.382;8.480;2024-02-26T00:21:28;10.40;96.70
19007;DHT22;9636;47.382;8.480;2024-02-26T00:23:55;10.40;96.60
19007;DHT22;9636;47.382;8.480;2024-02-26T00:26:21;10.40;96.50
19007;DHT22;9636;47.382;8.480;2024-02-26T00:28:48;10.40;96.30
19007;DHT22;9636;47.382;8.480;2024-02-26T00:31:15;10.40;96.60
19007;DHT22;9636;47.382;8.480;2024-02-26T00:33:42;10.50;96.30
19007;DHT22;9636;47.382;8.480;2024-02-26T00:36:09;10.00;96.30
19007;DHT22;9636;47.382;8.480;2024-02-26T00:38:37;9.90;97.30
19007;DHT22;9636;47.382;8.480;2024-02-26T00:41:06;10.10;97.00
19007;DHT22;9636;47.382;8.480;2024-02-26T00:43:33;10.30;96.90
19007;DHT22;9636;47.382;8.480;2024-02-26T00:46:00;10.20;96.40
19007;DHT22;9636;47.382;8.480;2024-02-26T00:48:27;10.20;96.10
19007;DHT22;9636;47.382;8.480;2024-02-26T00:50:54;10.40;95.80
19007;DHT22;9636;47.382;8.480;2024-02-26T00:53:21;10.30;95.30
19007;DHT22;9636;47.382;8.480;2024-02-26T00:55:49;10.40;95.00
19007;DHT22;9636;47.382;8.480;2024-02-26T00:58:16;10.20;94.80
19007;DHT22;9636;47.382;8.480;2024-02-26T01:00:43;10.10;95.30
19007;DHT22;9636;47.382;8.480;2024-02-26T01:03:10;10.30;95.20
19007;DHT22;9636;47.382;8.480;2024-02-26T01:05:37;10.30;95.30
19007;DHT22;9636;47.382;8.480;2024-02-26T01:08:04;10.40;95.30
19007;DHT22;9636;47.382;8.480;2024-02-26T01:10:31;10.40;95.30
19007;DHT22;9636;47.382;8.480;2024-02-26T01:12:59;10.10;95.70
19007;DHT22;9636;47.382;8.480;2024-02-26T01:15:26;10.00;95.80
19007;DHT22;9636;47.382;8.480;2024-02-26T01:17:53;10.30;95.80
19007;DHT22;9636;47.382;8.480;2024-02-26T01:20:20;10.20;95.90
19007;DHT22;9636;47.382;8.480;2024-02-26T01:22:47;10.00;96.50
19007;DHT22;9636;47.382;8.480;2024-02-26T01:25:14;10.20;96.40
19007;DHT22;9636;47.382;8.480;2024-02-26T01:27:42;10.30;96.60
19007;DHT22;9636;47.382;8.480;2024-02-26T01:30:11;10.30;96.60
19007;DHT22;9636;47.382;8.480;2024-02-26T01:32:41;10.40;96.50
19007;DHT22;9636;47.382;8.480;2024-02-26T01:35:08;10.30;96.20
19007;DHT22;9636;47.382;8.480;2024-02-26T01:37:37;10.30;96.60
19007;DHT22;9636;47.382;8.480;2024-02-26T01:40:06;10.40;96.50
19007;DHT22;9636;47.382;8.480;2024-02-26T01:42:33;10.30;96.30
19007;DHT22;9636;47.382;8.480;2024-02-26T01:45:00;10.00;96.60
19007;DHT22;9636;47.382;8.480;2024-02-26T01:47:29;10.30;96.80
19007;DHT22;9636;47.382;8.480;2024-02-26T01:49:56;10.10;97.20
19007;DHT22;9636;47.382;8.480;2024-02-26T01:52:23;10.30;97.40
19007;DHT22;9636;47.382;8.480;2024-02-26T01:54:50;10.30;97.20
19007;DHT22;9636;47.382;8.480;2024-02-26T01:57:17;10.20;97.60
19007;DHT22;9636;47.382;8.480;2024-02-26T01:59:44;10.20;97.60
19007;DHT22;9636;47.382;8.480;2024-02-26T02:02:12;10.30;97.70
19007;DHT22;9636;47.382;8.480;2024-02-26T02:04:40;10.30;97.60
19007;DHT22;9636;47.382;8.480;2024-02-26T02:07:07;10.30;97.50
19007;DHT22;9636;47.382;8.480;2024-02-26T02:09:33;10.20;97.40
19007;DHT22;9636;47.382;8.480;2024-02-26T02:12:00;10.20;97.70
19007;DHT22;9636;47.382;8.480;2024-02-26T02:14:27;10.30;97.30
19007;DHT22;9636;47.382;8.480;2024-02-26T02:16:54;10.20;97.70
19007;DHT22;9636;47.382;8.480;2024-02-26T02:19:21;10.20;97.50
19007;DHT22;9636;47.382;8.480;2024-02-26T02:21:49;10.30;97.30
19007;DHT22;9636;47.382;8.480;2024-02-26T02:24:16;10.30;97.40
19007;DHT22;9636;47.382;8.480;2024-02-26T02:26:43;10.10;97.50
19007;DHT22;9636;47.382;8.480;2024-02-26T02:29:10;10.10;98.00
19007;DHT22;9636;47.382;8.480;2024-02-26T02:31:38;10.20;97.80
19007;DHT22;9636;47.382;8.480;2024-02-26T02:34:05;10.10;98.30
19007;DHT22;9636;47.382;8.480;2024-02-26T02:36:32;10.20;98.30
19007;DHT22;9636;47.382;8.480;2024-02-26T02:39:00;10.30;98.10
19007;DHT22;9636;47.382;8.480;2024-02-26T02:41:27;10.20;98.10
19007;DHT22;9636;47.382;8.480;2024-02-26T02:43:55;10.20;98.50
19007;DHT22;9636;47.382;8.480;2024-02-26T02:46:22;10.30;98.00
19007;DHT22;9636;47.382;8.480;2024-02-26T02:48:49;10.00;98.50
19007;DHT22;9636;47.382;8.480;2024-02-26T02:51:16;9.90;98.90
19007;DHT22;9636;47.382;8.480;2024-02-26T02:53:42;9.70;99.00
19007;DHT22;9636;47.382;8.480;2024-02-26T02:56:11;9.80;99.50
19007;DHT22;9636;47.382;8.480;2024-02-26T02:58:37;9.70;99.00
19007;DHT22;9636;47.382;8.480;2024-02-26T03:01:04;9.70;99.30
19007;DHT22;9636;47.382;8.480;2024-02-26T03:03:31;9.70;99.40
19007;DHT22;9636;47.382;8.480;2024-02-26T03:05:58;9.50;99.80
19007;DHT22;9636;47.382;8.480;2024-02-26T03:08:25;9.20;99.90
19007;DHT22;9636;47.382;8.480;2024-02-26T03:10:52;9.20;99.90
19007;DHT22;9636;47.382;8.480;2024-02-26T03:13:20;9.30;99.90
19007;DHT22;9636;47.382;8.480;2024-02-26T03:15:47;9.20;99.90
19007;DHT22;9636;47.382;8.480;2024-02-26T03:18:14;9.00;99.90
19007;DHT22;9636;47.382;8.480;2024-02-26T03:20:41;9.00;99.90
19007;DHT22;9636;47.382;8.480;2024-02-26T03:23:07;8.80;99.90
19007;DHT22;9636;47.382;8.480;2024-02-26T03:25:38;8.70;99.90
19007;DHT22;9636;47.382;8.480;2024-02-26T03:28:05;8.80;99.90
19007;DHT22;9636;47.382;8.480;2024-02-26T03:30:34;8.90;99.90
19007;DHT22;9636;47.382;8.480;2024-02-26T03:33:01;8.80;99.90
19007;DHT22;9636;47.382;8.480;2024-02-26T03:35:28;8.50;99.90
19007;DHT22;9636;47.382;8.480;2024-02-26T03:37:54;8.40;99.90
19007;DHT22;9636;47.382;8.480;2024-02-26T03:40:21;8.50;99.90
19007;DHT22;9636;47.382;8.480;2024-02-26T03:42:48;8.50;99.90
19007;DHT22;9636;47.382;8.480;2024-02-26T03:45:15;8.50;99.90
19007;DHT22;9636;47.382;8.480;2024-02-26T03:47:43;8.50;99.90
19007;DHT22;9636;47.382;8.480;2024-02-26T03:50:10;8.50;99.90
19007;DHT22;9636;47.382;8.480;2024-02-26T03:52:37;8.40;99.90
19007;DHT22;9636;47.382;8.480;2024-02-26T03:55:04;8.10;99.90
19007;DHT22;9636;47.382;8.480;2024-02-26T03:57:31;8.10;99.90
19007;DHT22;9636;47.382;8.480;2024-02-26T03:59:58;8.10;99.90
19007;DHT22;9636;47.382;8.480;2024-02-26T04:02:25;8.20;99.90
19007;DHT22;9636;47.382;8.480;2024-02-26T04:04:53;8.20;99.90
19007;DHT22;9636;47.382;8.480;2024-02-26T04:07:20;8.20;99.90
19007;DHT22;9636;47.382;8.480;2024-02-26T04:09:47;8.40;99.90
19007;DHT22;9636;47.382;8.480;2024-02-26T04:12:14;8.60;99.90
19007;DHT22;9636;47.382;8.480;2024-02-26T04:14:41;8.70;99.90
19007;DHT22;9636;47.382;8.480;2024-02-26T04:17:08;8.90;99.90
19007;DHT22;9636;47.382;8.480;2024-02-26T04:19:36;9.00;99.90
19007;DHT22;9636;47.382;8.480;2024-02-26T04:22:04;9.10;99.90
19007;DHT22;9636;47.382;8.480;2024-02-26T04:24:31;9.20;99.90
19007;DHT22;9636;47.382;8.480;2024-02-26T04:26:58;9.40;99.90
19007;DHT22;9636;47.382;8.480;2024-02-26T04:29:25;9.30;99.90
19007;DHT22;9636;47.382;8.480;2024-02-26T04:31:51;9.30;99.90
19007;DHT22;9636;47.382;8.480;2024-02-26T04:34:18;9.30;99.90
19007;DHT22;9636;47.382;8.480;2024-02-26T04:36:45;9.30;99.90
19007;DHT22;9636;47.382;8.480;2024-02-26T04:39:14;9.30;99.90
19007;DHT22;9636;47.382;8.480;2024-02-26T04:41:41;9.20;99.90
19007;DHT22;9636;47.382;8.480;2024-02-26T04:44:08;9.40;99.90
19007;DHT22;9636;47.382;8.480;2024-02-26T04:46:35;9.40;99.90
19007;DHT22;9636;47.382;8.480;2024-02-26T04:49:02;9.40;99.90
19007;DHT22;9636;47.382;8.480;2024-02-26T04:51:29;9.40;99.90
19007;DHT22;9636;47.382;8.480;2024-02-26T04:53:56;9.20;99.90
19007;DHT22;9636;47.382;8.480;2024-02-26T04:56:25;8.90;99.90
19007;DHT22;9636;47.382;8.480;2024-02-26T04:58:52;9.20;99.90
19007;DHT22;9636;47.382;8.480;2024-02-26T05:01:18;9.30;99.90
19007;DHT22;9636;47.382;8.480;2024-02-26T05:03:45;9.20;99.90
19007;DHT22;9636;47.382;8.480;2024-02-26T05:06:12;9.00;99.90
19007;DHT22;9636;47.382;8.480;2024-02-26T05:08:39;9.00;99.90
19007;DHT22;9636;47.382;8.480;2024-02-26T05:11:06;8.70;99.90
19007;DHT22;9636;47.382;8.480;2024-02-26T05:13:34;8.60;99.90
19007;DHT22;9636;47.382;8.480;2024-02-26T05:16:01;8.60;99.90
19007;DHT22;9636;47.382;8.480;2024-02-26T05:18:28;8.70;99.90
19007;DHT22;9636;47.382;8.480;2024-02-26T05:20:55;8.70;99.90
19007;DHT22;9636;47.382;8.480;2024-02-26T05:23:22;8.90;99.90
19007;DHT22;9636;47.382;8.480;2024-02-26T05:25:49;9.00;99.90
19007;DHT22;9636;47.382;8.480;2024-02-26T05:28:16;9.00;99.90
19007;DHT22;9636;47.382;8.480;2024-02-26T05:30:47;9.00;99.90
19007;DHT22;9636;47.382;8.480;2024-02-26T05:33:14;9.00;99.90
19007;DHT22;9636;47.382;8.480;2024-02-26T05:35:41;8.70;99.90
19007;DHT22;9636;47.382;8.480;2024-02-26T05:38:07;8.70;99.90
19007;DHT22;9636;47.382;8.480;2024-02-26T05:40:34;9.00;99.90
19007;DHT22;9636;47.382;8.480;2024-02-26T05:43:01;8.90;99.90
19007;DHT22;9636;47.382;8.480;2024-02-26T05:45:28;8.60;99.90
19007;DHT22;9636;47.382;8.480;2024-02-26T05:47:56;8.50;99.90
19007;DHT22;9636;47.382;8.480;2024-02-26T05:50:23;8.60;99.90
19007;DHT22;9636;47.382;8.480;2024-02-26T05:52:51;8.70;99.90
19007;DHT22;9636;47.382;8.480;2024-02-26T05:55:18;8.50;99.90
19007;DHT22;9636;47.382;8.480;2024-02-26T05:57:44;8.60;99.90
19007;DHT22;9636;47.382;8.480;2024-02-26T06:00:12;8.60;99.90
19007;DHT22;9636;47.382;8.480;2024-02-26T06:02:39;8.50;99.90
19007;DHT22;9636;47.382;8.480;2024-02-26T06:05:07;8.50;99.90
19007;DHT22;9636;47.382;8.480;2024-02-26T06:07:35;8.50;99.90
19007;DHT22;9636;47.382;8.480;2024-02-26T06:10:02;8.60;99.90
19007;DHT22;9636;47.382;8.480;2024-02-26T06:12:30;8.60;99.90
19007;DHT22;9636;47.382;8.480;2024-02-26T06:14:58;8.70;99.90
19007;DHT22;9636;47.382;8.480;2024-02-26T06:17:26;8.60;99.90
19007;DHT22;9636;47.382;8.480;2024-02-26T06:19:53;8.40;99.90
19007;DHT22;9636;47.382;8.480;2024-02-26T06:22:21;8.30;99.90
19007;DHT22;9636;47.382;8.480;2024-02-26T06:24:48;8.30;99.90
19007;DHT22;9636;47.382;8.480;2024-02-26T06:27:15;8.30;99.90
19007;DHT22;9636;47.382;8.480;2024-02-26T06:29:42;8.40;99.90
19007;DHT22;9636;47.382;8.480;2024-02-26T06:32:08;8.50;99.90
19007;DHT22;9636;47.382;8.480;2024-02-26T06:34:35;8.50;99.90
19007;DHT22;9636;47.382;8.480;2024-02-26T06:37:03;8.50;99.90
19007;DHT22;9636;47.382;8.480;2024-02-26T06:39:32;8.50;99.90
19007;DHT22;9636;47.382;8.480;2024-02-26T06:41:59;8.50;99.90
19007;DHT22;9636;47.382;8.480;2024-02-26T06:44:27;8.60;99.90
19007;DHT22;9636;47.382;8.480;2024-02-26T06:46:57;8.80;99.90
19007;DHT22;9636;47.382;8.480;2024-02-26T06:49:24;8.70;99.90
19007;DHT22;9636;47.382;8.480;2024-02-26T06:51:51;8.70;99.90
19007;DHT22;9636;47.382;8.480;2024-02-26T06:54:17;8.70;99.90
19007;DHT22;9636;47.382;8.480;2024-02-26T06:56:46;8.70;99.90
19007;DHT22;9636;47.382;8.480;2024-02-26T06:59:12;8.70;99.90
19007;DHT22;9636;47.382;8.480;2024-02-26T07:01:41;8.80;99.90
19007;DHT22;9636;47.382;8.480;2024-02-26T07:04:08;9.00;99.90
19007;DHT22;9636;47.382;8.480;2024-02-26T07:06:36;9.10;99.90
19007;DHT22;9636;47.382;8.480;2024-02-26T07:09:03;9.00;99.90
19007;DHT22;9636;47.382;8.480;2024-02-26T07:11:30;9.00;99.90
19007;DHT22;9636;47.382;8.480;2024-02-26T07:13:59;8.90;99.90
19007;DHT22;9636;47.382;8.480;2024-02-26T07:16:27;8.90;99.90
19007;DHT22;9636;47.382;8.480;2024-02-26T07:18:54;9.10;99.90
19007;DHT22;9636;47.382;8.480;2024-02-26T07:21:20;9.00;99.90
19007;DHT22;9636;47.382;8.480;2024-02-26T07:23:47;8.90;99.90
19007;DHT22;9636;47.382;8.480;2024-02-26T07:26:14;8.80;99.90
19007;DHT22;9636;47.382;8.480;2024-02-26T07:28:43;8.90;99.90
19007;DHT22;9636;47.382;8.480;2024-02-26T07:31:11;9.00;99.90
19007;DHT22;9636;47.382;8.480;2024-02-26T07:33:37;9.30;99.90
19007;DHT22;9636;47.382;8.480;2024-02-26T07:36:05;9.50;99.90
19007;DHT22;9636;47.382;8.480;2024-02-26T07:38:31;9.60;99.90
19007;DHT22;9636;47.382;8.480;2024-02-26T07:40:58;9.70;99.90
19007;DHT22;9636;47.382;8.480;2024-02-26T07:43:25;9.80;99.90
19007;DHT22;9636;47.382;8.480;2024-02-26T07:45:52;9.90;99.90
19007;DHT22;9636;47.382;8.480;2024-02-26T07:48:20;10.00;99.90
19007;DHT22;9636;47.382;8.480;2024-02-26T07:50:47;10.10;99.90
19007;DHT22;9636;47.382;8.480;2024-02-26T07:53:14;10.10;99.90
19007;DHT22;9636;47.382;8.480;2024-02-26T07:55:41;10.40;99.90
19007;DHT22;9636;47.382;8.480;2024-02-26T07:58:07;11.10;99.90
19007;DHT22;9636;47.382;8.480;2024-02-26T08:00:34;11.80;99.90
19007;DHT22;9636;47.382;8.480;2024-02-26T08:03:01;12.80;99.20
19007;DHT22;9636;47.382;8.480;2024-02-26T08:05:30;13.40;97.50
19007;DHT22;9636;47.382;8.480;2024-02-26T08:07:56;13.60;96.90
19007;DHT22;9636;47.382;8.480;2024-02-26T08:10:23;13.70;96.00
19007;DHT22;9636;47.382;8.480;2024-02-26T08:12:50;13.60;96.60
19007;DHT22;9636;47.382;8.480;2024-02-26T08:15:17;14.10;97.20
19007;DHT22;9636;47.382;8.480;2024-02-26T08:17:44;14.80;96.10
19007;DHT22;9636;47.382;8.480;2024-02-26T08:20:13;14.50;94.90
19007;DHT22;9636;47.382;8.480;2024-02-26T08:22:41;13.40;95.80
19007;DHT22;9636;47.382;8.480;2024-02-26T08:25:09;12.90;97.30
19007;DHT22;9636;47.382;8.480;2024-02-26T08:27:36;12.40;97.80
19007;DHT22;9636;47.382;8.480;2024-02-26T08:30:03;12.40;98.20
19007;DHT22;9636;47.382;8.480;2024-02-26T08:32:30;12.80;97.20
19007;DHT22;9636;47.382;8.480;2024-02-26T08:34:57;13.60;97.10
19007;DHT22;9636;47.382;8.480;2024-02-26T08:37:24;13.60;96.70
19007;DHT22;9636;47.382;8.480;2024-02-26T08:39:52;13.10;96.30
19007;DHT22;9636;47.382;8.480;2024-02-26T08:42:19;12.60;97.60
19007;DHT22;9636;47.382;8.480;2024-02-26T08:44:46;12.30;98.30
19007;DHT22;9636;47.382;8.480;2024-02-26T08:47:13;12.10;98.60
19007;DHT22;9636;47.382;8.480;2024-02-26T08:49:42;11.70;98.90
19007;DHT22;9636;47.382;8.480;2024-02-26T08:52:09;11.60;98.90
19007;DHT22;9636;47.382;8.480;2024-02-26T08:54:36;11.50;98.80
19007;DHT22;9636;47.382;8.480;2024-02-26T08:57:04;11.30;99.40
19007;DHT22;9636;47.382;8.480;2024-02-26T08:59:31;11.20;99.60
19007;DHT22;9636;47.382;8.480;2024-02-26T09:01:58;11.40;99.90
19007;DHT22;9636;47.382;8.480;2024-02-26T09:04:25;11.30;99.50
19007;DHT22;9636;47.382;8.480;2024-02-26T09:06:52;11.40;99.90
19007;DHT22;9636;47.382;8.480;2024-02-26T09:09:20;11.30;99.90
19007;DHT22;9636;47.382;8.480;2024-02-26T09:11:47;11.20;99.50
19007;DHT22;9636;47.382;8.480;2024-02-26T09:14:18;11.20;99.90
19007;DHT22;9636;47.382;8.480;2024-02-26T09:16:45;11.30;99.90
19007;DHT22;9636;47.382;8.480;2024-02-26T09:19:13;11.30;99.90
19007;DHT22;9636;47.382;8.480;2024-02-26T09:21:42;11.30;99.90
19007;DHT22;9636;47.382;8.480;2024-02-26T09:24:10;11.40;99.90
19007;DHT22;9636;47.382;8.480;2024-02-26T09:26:37;11.30;99.90
19007;DHT22;9636;47.382;8.480;2024-02-26T09:29:03;11.30;99.90
19007;DHT22;9636;47.382;8.480;2024-02-26T09:31:32;11.50;99.90
19007;DHT22;9636;47.382;8.480;2024-02-26T09:33:59;11.50;99.90
19007;DHT22;9636;47.382;8.480;2024-02-26T09:36:26;11.30;99.90
19007;DHT22;9636;47.382;8.480;2024-02-26T09:38:54;11.40;99.90
19007;DHT22;9636;47.382;8.480;2024-02-26T09:41:20;11.70;99.90
19007;DHT22;9636;47.382;8.480;2024-02-26T09:43:48;11.70;99.90
19007;DHT22;9636;47.382;8.480;2024-02-26T09:46:17;11.90;99.90
19007;DHT22;9636;47.382;8.480;2024-02-26T09:48:47;11.90;99.90
19007;DHT22;9636;47.382;8.480;2024-02-26T09:51:15;11.90;99.90
19007;DHT22;9636;47.382;8.480;2024-02-26T09:53:43;12.00;99.90
19007;DHT22;9636;47.382;8.480;2024-02-26T09:56:11;12.00;99.90
19007;DHT22;9636;47.382;8.480;2024-02-26T09:58:39;12.00;99.70
19007;DHT22;9636;47.382;8.480;2024-02-26T10:01:11;12.00;99.90
19007;DHT22;9636;47.382;8.480;2024-02-26T10:03:41;11.90;99.80
19007;DHT22;9636;47.382;8.480;2024-02-26T10:06:11;11.80;99.80
19007;DHT22;9636;47.382;8.480;2024-02-26T10:08:38;11.80;99.90
19007;DHT22;9636;47.382;8.480;2024-02-26T10:11:07;11.60;99.80
19007;DHT22;9636;47.382;8.480;2024-02-26T10:13:34;11.60;99.30
19007;DHT22;9636;47.382;8.480;2024-02-26T10:16:01;11.60;99.90
19007;DHT22;9636;47.382;8.480;2024-02-26T10:18:47;11.70;99.90
19007;DHT22;9636;47.382;8.480;2024-02-26T10:21:18;11.70;99.90
19007;DHT22;9636;47.382;8.480;2024-02-26T10:23:45;11.70;99.90
19007;DHT22;9636;47.382;8.480;2024-02-26T10:26:13;11.80;99.90
19007;DHT22;9636;47.382;8.480;2024-02-26T10:28:41;11.80;99.90
19007;DHT22;9636;47.382;8.480;2024-02-26T10:31:08;11.70;99.90
19007;DHT22;9636;47.382;8.480;2024-02-26T10:33:36;11.70;99.90
19007;DHT22;9636;47.382;8.480;2024-02-26T10:36:04;11.80;99.90
19007;DHT22;9636;47.382;8.480;2024-02-26T10:38:35;11.70;99.90
19007;DHT22;9636;47.382;8.480;2024-02-26T10:41:02;11.60;99.80
19007;DHT22;9636;47.382;8.480;2024-02-26T10:43:29;11.70;99.90
19007;DHT22;9636;47.382;8.480;2024-02-26T10:45:57;11.60;99.90
19007;DHT22;9636;47.382;8.480;2024-02-26T10:48:24;11.70;99.90
19007;DHT22;9636;47.382;8.480;2024-02-26T10:50:51;11.90;99.90
19007;DHT22;9636;47.382;8.480;2024-02-26T10:53:20;12.00;99.90
19007;DHT22;9636;47.382;8.480;2024-02-26T10:55:52;12.00;99.90
19007;DHT22;9636;47.382;8.480;2024-02-26T10:58:19;12.00;99.90
19007;DHT22;9636;47.382;8.480;2024-02-26T11:00:48;12.00;99.90
19007;DHT22;9636;47.382;8.480;2024-02-26T11:03:16;12.00;99.90
19007;DHT22;9636;47.382;8.480;2024-02-26T11:05:47;12.00;99.90
19007;DHT22;9636;47.382;8.480;2024-02-26T11:08:15;12.00;99.90
19007;DHT22;9636;47.382;8.480;2024-02-26T11:10:42;12.00;99.90
19007;DHT22;9636;47.382;8.480;2024-02-26T11:13:14;12.00;99.90
19007;DHT22;9636;47.382;8.480;2024-02-26T11:15:43;12.00;99.90
19007;DHT22;9636;47.382;8.480;2024-02-26T11:18:11;11.90;99.90
19007;DHT22;9636;47.382;8.480;2024-02-26T11:20:40;11.90;99.90
19007;DHT22;9636;47.382;8.480;2024-02-26T11:23:08;11.90;99.90
19007;DHT22;9636;47.382;8.480;2024-02-26T11:25:35;11.90;99.90
19007;DHT22;9636;47.382;8.480;2024-02-26T11:28:05;12.00;99.90
19007;DHT22;9636;47.382;8.480;2024-02-26T11:30:36;12.00;99.90
19007;DHT22;9636;47.382;8.480;2024-02-26T11:33:06;12.00;99.90
19007;DHT22;9636;47.382;8.480;2024-02-26T11:35:35;12.00;99.90
19007;DHT22;9636;47.382;8.480;2024-02-26T11:38:03;12.00;99.90
19007;DHT22;9636;47.382;8.480;2024-02-26T11:40:32;12.00;99.90
19007;DHT22;9636;47.382;8.480;2024-02-26T11:42:59;11.90;99.90
19007;DHT22;9636;47.382;8.480;2024-02-26T11:45:50;11.90;99.90
19007;DHT22;9636;47.382;8.480;2024-02-26T11:48:21;11.50;99.90
19007;DHT22;9636;47.382;8.480;2024-02-26T11:50:50;11.40;99.90
19007;DHT22;9636;47.382;8.480;2024-02-26T11:53:21;11.50;99.90
19007;DHT22;9636;47.382;8.480;2024-02-26T11:56:03;11.70;99.90
19007;DHT22;9636;47.382;8.480;2024-02-26T11:58:39;11.90;99.90
19007;DHT22;9636;47.382;8.480;2024-02-26T12:01:37;12.00;99.90
19007;DHT22;9636;47.382;8.480;2024-02-26T12:04:05;12.20;99.90
19007;DHT22;9636;47.382;8.480;2024-02-26T12:06:43;12.30;99.50
19007;DHT22;9636;47.382;8.480;2024-02-26T12:09:11;12.30;98.90
19007;DHT22;9636;47.382;8.480;2024-02-26T12:11:39;12.40;99.30
19007;DHT22;9636;47.382;8.480;2024-02-26T12:14:07;12.50;98.70
19007;DHT22;9636;47.382;8.480;2024-02-26T12:16:38;12.60;98.50
19007;DHT22;9636;47.382;8.480;2024-02-26T12:19:06;12.70;97.60
19007;DHT22;9636;47.382;8.480;2024-02-26T12:21:34;12.70;97.80
19007;DHT22;9636;47.382;8.480;2024-02-26T12:24:11;12.80;97.50
19007;DHT22;9636;47.382;8.480;2024-02-26T12:26:39;12.90;97.30
19007;DHT22;9636;47.382;8.480;2024-02-26T12:29:06;12.80;97.60
19007;DHT22;9636;47.382;8.480;2024-02-26T12:31:33;13.00;97.90
19007;DHT22;9636;47.382;8.480;2024-02-26T12:34:04;13.10;97.30
19007;DHT22;9636;47.382;8.480;2024-02-26T12:36:32;13.30;97.50
19007;DHT22;9636;47.382;8.480;2024-02-26T12:39:01;13.50;97.40
19007;DHT22;9636;47.382;8.480;2024-02-26T12:41:31;13.60;97.30
19007;DHT22;9636;47.382;8.480;2024-02-26T12:43:59;13.60;96.80
19007;DHT22;9636;47.382;8.480;2024-02-26T12:46:25;13.70;97.30
19007;DHT22;9636;47.382;8.480;2024-02-26T12:48:55;13.60;97.80
19007;DHT22;9636;47.382;8.480;2024-02-26T12:51:25;13.70;97.00
19007;DHT22;9636;47.382;8.480;2024-02-26T12:53:53;13.60;96.30
19007;DHT22;9636;47.382;8.480;2024-02-26T12:56:21;13.70;97.10
19007;DHT22;9636;47.382;8.480;2024-02-26T12:58:48;13.80;97.30
19007;DHT22;9636;47.382;8.480;2024-02-26T13:01:18;13.90;97.30
19007;DHT22;9636;47.382;8.480;2024-02-26T13:03:46;13.80;96.20
19007;DHT22;9636;47.382;8.480;2024-02-26T13:06:13;13.80;97.10
19007;DHT22;9636;47.382;8.480;2024-02-26T13:08:41;13.80;96.20
19007;DHT22;9636;47.382;8.480;2024-02-26T13:11:08;13.70;96.00
19007;DHT22;9636;47.382;8.480;2024-02-26T13:13:35;13.60;96.70
19007;DHT22;9636;47.382;8.480;2024-02-26T13:16:03;13.50;96.50
19007;DHT22;9636;47.382;8.480;2024-02-26T13:18:31;13.50;96.40
19007;DHT22;9636;47.382;8.480;2024-02-26T13:21:09;13.50;96.20
19007;DHT22;9636;47.382;8.480;2024-02-26T13:23:36;13.50;96.50
19007;DHT22;9636;47.382;8.480;2024-02-26T13:26:04;13.50;96.20
19007;DHT22;9636;47.382;8.480;2024-02-26T13:28:31;13.50;97.10
19007;DHT22;9636;47.382;8.480;2024-02-26T13:30:58;13.50;97.10
19007;DHT22;9636;47.382;8.480;2024-02-26T13:33:27;13.50;96.80
19007;DHT22;9636;47.382;8.480;2024-02-26T13:35:55;13.50;96.30
19007;DHT22;9636;47.382;8.480;2024-02-26T13:38:22;13.40;96.20
19007;DHT22;9636;47.382;8.480;2024-02-26T13:40:49;13.40;96.90
19007;DHT22;9636;47.382;8.480;2024-02-26T13:43:17;13.40;96.50
19007;DHT22;9636;47.382;8.480;2024-02-26T13:45:45;13.40;96.40
19007;DHT22;9636;47.382;8.480;2024-02-26T13:48:12;13.30;96.30
19007;DHT22;9636;47.382;8.480;2024-02-26T13:50:39;13.30;96.40
19007;DHT22;9636;47.382;8.480;2024-02-26T13:53:06;13.30;96.60
19007;DHT22;9636;47.382;8.480;2024-02-26T13:55:33;13.20;96.30
19007;DHT22;9636;47.382;8.480;2024-02-26T13:58:00;13.20;96.50
19007;DHT22;9636;47.382;8.480;2024-02-26T14:00:29;13.10;95.90
19007;DHT22;9636;47.382;8.480;2024-02-26T14:02:58;13.20;96.10
19007;DHT22;9636;47.382;8.480;2024-02-26T14:05:24;13.10;95.90
19007;DHT22;9636;47.382;8.480;2024-02-26T14:07:52;13.10;96.10
19007;DHT22;9636;47.382;8.480;2024-02-26T14:10:20;13.00;96.40
19007;DHT22;9636;47.382;8.480;2024-02-26T14:12:47;12.90;96.30
19007;DHT22;9636;47.382;8.480;2024-02-26T14:15:14;13.00;96.40
19007;DHT22;9636;47.382;8.480;2024-02-26T14:17:42;13.00;96.00
19007;DHT22;9636;47.382;8.480;2024-02-26T14:20:10;13.00;95.70
19007;DHT22;9636;47.382;8.480;2024-02-26T14:22:37;13.00;95.70
19007;DHT22;9636;47.382;8.480;2024-02-26T14:25:04;12.90;95.50
19007;DHT22;9636;47.382;8.480;2024-02-26T14:27:31;12.90;96.00
19007;DHT22;9636;47.382;8.480;2024-02-26T14:29:58;12.90;96.00
19007;DHT22;9636;47.382;8.480;2024-02-26T14:32:25;12.90;96.20
19007;DHT22;9636;47.382;8.480;2024-02-26T14:34:55;12.90;96.30
19007;DHT22;9636;47.382;8.480;2024-02-26T14:37:22;12.80;95.90
19007;DHT22;9636;47.382;8.480;2024-02-26T14:39:49;12.80;96.50
19007;DHT22;9636;47.382;8.480;2024-02-26T14:42:17;12.80;96.00
19007;DHT22;9636;47.382;8.480;2024-02-26T14:44:44;12.90;95.90
19007;DHT22;9636;47.382;8.480;2024-02-26T14:47:13;12.90;96.20
19007;DHT22;9636;47.382;8.480;2024-02-26T14:49:39;12.80;96.20
19007;DHT22;9636;47.382;8.480;2024-02-26T14:52:08;12.80;96.00
19007;DHT22;9636;47.382;8.480;2024-02-26T14:54:35;12.80;96.30
19007;DHT22;9636;47.382;8.480;2024-02-26T14:57:04;12.80;95.80
19007;DHT22;9636;47.382;8.480;2024-02-26T14:59:32;12.80;96.20
19007;DHT22;9636;47.382;8.480;2024-02-26T15:01:59;12.90;95.90
19007;DHT22;9636;47.382;8.480;2024-02-26T15:04:26;12.90;95.90
19007;DHT22;9636;47.382;8.480;2024-02-26T15:06:53;12.80;96.30
19007;DHT22;9636;47.382;8.480;2024-02-26T15:09:21;12.90;95.40
19007;DHT22;9636;47.382;8.480;2024-02-26T15:11:48;12.90;95.40
19007;DHT22;9636;47.382;8.480;2024-02-26T15:14:15;12.90;95.60
19007;DHT22;9636;47.382;8.480;2024-02-26T15:16:41;12.80;96.10
19007;DHT22;9636;47.382;8.480;2024-02-26T15:19:09;12.80;96.00
19007;DHT22;9636;47.382;8.480;2024-02-26T15:21:42;12.90;96.20
19007;DHT22;9636;47.382;8.480;2024-02-26T15:24:09;13.00;96.20
19007;DHT22;9636;47.382;8.480;2024-02-26T15:26:38;13.00;95.90
19007;DHT22;9636;47.382;8.480;2024-02-26T15:29:05;12.90;96.30
19007;DHT22;9636;47.382;8.480;2024-02-26T15:31:34;12.80;96.40
19007;DHT22;9636;47.382;8.480;2024-02-26T15:34:01;12.80;96.10
19007;DHT22;9636;47.382;8.480;2024-02-26T15:36:28;12.70;96.50
19007;DHT22;9636;47.382;8.480;2024-02-26T15:38:55;12.70;96.40
19007;DHT22;9636;47.382;8.480;2024-02-26T15:41:23;12.80;96.00
19007;DHT22;9636;47.382;8.480;2024-02-26T15:43:51;12.80;96.50
19007;DHT22;9636;47.382;8.480;2024-02-26T15:46:18;12.80;96.50
19007;DHT22;9636;47.382;8.480;2024-02-26T15:48:44;12.80;96.00
19007;DHT22;9636;47.382;8.480;2024-02-26T15:51:18;12.80;95.60
19007;DHT22;9636;47.382;8.480;2024-02-26T15:53:46;12.90;96.30